GLD1552 SBGR-SBFL
Flight info
| Callsign | GLD1552 |
|---|---|
| Flight time | N/A |
| Altitude | 36000 |
| Route | EGOKI UZ92 PUBIS |
| Aircraft | B738/M-SDFGILORW/S |
Departure
| Time | 2026-05-04 00:35 |
|---|---|
| Airport | São Paulo/Guarulhos–Governor André Franco Montoro International Airport (SBGR) |
Arrival
| Time | N/A |
|---|---|
| Airport | Hercílio Luz International Airport (SBFL) |
| Time | Latitude | Longitude | Altitude | Speed | Heading |
|---|---|---|---|---|---|
| 2026-05-04 00:14 | -23.42754 | -46.47688 | 2444 ft | 0 kts | 255° |
| 2026-05-04 00:22 | -23.42753 | -46.47685 | 2444 ft | 1 kts | 256° |
| 2026-05-04 00:23 | -23.42750 | -46.47670 | 2444 ft | 2 kts | 255° |
| 2026-05-04 00:23 | -23.42746 | -46.47654 | 2444 ft | 2 kts | 255° |
| 2026-05-04 00:23 | -23.42742 | -46.47638 | 2444 ft | 2 kts | 255° |
| 2026-05-04 00:23 | -23.42738 | -46.47622 | 2444 ft | 2 kts | 255° |
| 2026-05-04 00:24 | -23.42735 | -46.47607 | 2444 ft | 2 kts | 255° |
| 2026-05-04 00:24 | -23.42732 | -46.47597 | 2444 ft | 1 kts | 256° |
| 2026-05-04 00:24 | -23.42724 | -46.47584 | 2443 ft | 2 kts | 202° |
| 2026-05-04 00:24 | -23.42712 | -46.47583 | 2443 ft | 0 kts | 161° |
| 2026-05-04 00:25 | -23.42706 | -46.47586 | 2443 ft | 1 kts | 157° |
| 2026-05-04 00:25 | -23.42705 | -46.47587 | 2443 ft | 0 kts | 157° |
| 2026-05-04 00:27 | -23.42728 | -46.47576 | 2443 ft | 7 kts | 158° |
| 2026-05-04 00:27 | -23.42779 | -46.47554 | 2444 ft | 7 kts | 158° |
| 2026-05-04 00:27 | -23.42827 | -46.47541 | 2444 ft | 6 kts | 185° |
| 2026-05-04 00:27 | -23.42861 | -46.47568 | 2444 ft | 5 kts | 239° |
| 2026-05-04 00:28 | -23.42875 | -46.47603 | 2445 ft | 4 kts | 248° |
| 2026-05-04 00:28 | -23.42887 | -46.47636 | 2445 ft | 4 kts | 249° |
| 2026-05-04 00:28 | -23.42897 | -46.47669 | 2445 ft | 4 kts | 254° |
| 2026-05-04 00:28 | -23.42904 | -46.47698 | 2446 ft | 4 kts | 256° |
| 2026-05-04 00:29 | -23.42913 | -46.47739 | 2447 ft | 6 kts | 257° |
| 2026-05-04 00:29 | -23.42928 | -46.47806 | 2447 ft | 11 kts | 255° |
| 2026-05-04 00:29 | -23.42952 | -46.47890 | 2447 ft | 12 kts | 252° |
| 2026-05-04 00:29 | -23.42979 | -46.47986 | 2447 ft | 13 kts | 252° |
| 2026-05-04 00:30 | -23.43005 | -46.48073 | 2447 ft | 9 kts | 252° |
| 2026-05-04 00:30 | -23.43021 | -46.48129 | 2447 ft | 6 kts | 253° |
| 2026-05-04 00:30 | -23.43043 | -46.48157 | 2447 ft | 4 kts | 208° |
| 2026-05-04 00:30 | -23.43067 | -46.48162 | 2447 ft | 3 kts | 178° |
| 2026-05-04 00:31 | -23.43085 | -46.48160 | 2447 ft | 1 kts | 174° |
| 2026-05-04 00:31 | -23.43115 | -46.48179 | 2447 ft | 9 kts | 237° |
| 2026-05-04 00:31 | -23.43138 | -46.48244 | 2447 ft | 7 kts | 253° |
| 2026-05-04 00:31 | -23.43151 | -46.48292 | 2447 ft | 8 kts | 251° |
| 2026-05-04 00:32 | -23.43167 | -46.48352 | 2447 ft | 7 kts | 254° |
| 2026-05-04 00:32 | -23.43191 | -46.48412 | 2446 ft | 8 kts | 227° |
| 2026-05-04 00:32 | -23.43228 | -46.48423 | 2447 ft | 2 kts | 163° |
| 2026-05-04 00:32 | -23.43256 | -46.48415 | 2447 ft | 9 kts | 165° |
| 2026-05-04 00:33 | -23.43269 | -46.48411 | 2448 ft | 0 kts | 164° |
| 2026-05-04 00:33 | -23.43280 | -46.48408 | 2448 ft | 4 kts | 164° |
| 2026-05-04 00:33 | -23.43335 | -46.48391 | 2449 ft | 11 kts | 163° |
| 2026-05-04 00:34 | -23.43409 | -46.48328 | 2452 ft | 15 kts | 112° |
| 2026-05-04 00:34 | -23.43397 | -46.48211 | 2453 ft | 34 kts | 73° |
| 2026-05-04 00:34 | -23.43232 | -46.47612 | 2453 ft | 125 kts | 74° |
| 2026-05-04 00:34 | -23.42933 | -46.46514 | 2830 ft | 167 kts | 70° |
| 2026-05-04 00:35 | -23.42491 | -46.45312 | 3702 ft | 183 kts | 70° |
| 2026-05-04 00:35 | -23.42150 | -46.43953 | 4470 ft | 200 kts | 75° |
| 2026-05-04 00:35 | -23.41734 | -46.42400 | 5095 ft | 229 kts | 72° |
| 2026-05-04 00:35 | -23.41252 | -46.40705 | 6128 ft | 244 kts | 72° |
| 2026-05-04 00:36 | -23.40730 | -46.38882 | 7022 ft | 264 kts | 71° |
| 2026-05-04 00:36 | -23.40275 | -46.36970 | 8175 ft | 273 kts | 81° |
| 2026-05-04 00:36 | -23.40376 | -46.34869 | 9101 ft | 292 kts | 101° |
| 2026-05-04 00:36 | -23.41040 | -46.32695 | 9312 ft | 307 kts | 109° |
| 2026-05-04 00:37 | -23.41771 | -46.30596 | 9281 ft | 290 kts | 108° |
| 2026-05-04 00:37 | -23.42598 | -46.28599 | 9286 ft | 290 kts | 121° |
| 2026-05-04 00:37 | -23.43933 | -46.26947 | 9287 ft | 295 kts | 139° |
| 2026-05-04 00:37 | -23.45703 | -46.25827 | 9378 ft | 310 kts | 160° |
| 2026-05-04 00:38 | -23.47824 | -46.25414 | 10538 ft | 313 kts | 180° |
| 2026-05-04 00:38 | -23.49964 | -46.25642 | 11651 ft | 318 kts | 192° |
| 2026-05-04 00:38 | -23.52147 | -46.26384 | 12117 ft | 341 kts | 208° |
| 2026-05-04 00:38 | -23.54140 | -46.27785 | 12997 ft | 348 kts | 221° |
| 2026-05-04 00:39 | -23.55816 | -46.29710 | 13795 ft | 355 kts | 239° |
| 2026-05-04 00:39 | -23.56775 | -46.32116 | 14816 ft | 352 kts | 257° |
| 2026-05-04 00:39 | -23.57318 | -46.34729 | 15753 ft | 356 kts | 260° |
| 2026-05-04 00:39 | -23.57842 | -46.37361 | 16273 ft | 365 kts | 259° |
| 2026-05-04 00:40 | -23.58391 | -46.40052 | 16282 ft | 361 kts | 259° |
| 2026-05-04 00:40 | -23.58927 | -46.42704 | 16285 ft | 359 kts | 260° |
| 2026-05-04 00:40 | -23.59457 | -46.45354 | 16285 ft | 359 kts | 260° |
| 2026-05-04 00:40 | -23.59991 | -46.48039 | 16284 ft | 359 kts | 260° |
| 2026-05-04 00:41 | -23.60512 | -46.50666 | 16283 ft | 359 kts | 260° |
| 2026-05-04 00:41 | -23.61001 | -46.53344 | 16406 ft | 367 kts | 263° |
| 2026-05-04 00:41 | -23.61392 | -46.56082 | 17537 ft | 364 kts | 263° |
| 2026-05-04 00:41 | -23.61784 | -46.58798 | 18325 ft | 371 kts | 263° |
| 2026-05-04 00:42 | -23.62201 | -46.61573 | 19288 ft | 372 kts | 262° |
| 2026-05-04 00:42 | -23.62781 | -46.64310 | 20115 ft | 377 kts | 256° |
| 2026-05-04 00:42 | -23.63750 | -46.66996 | 20913 ft | 385 kts | 246° |
| 2026-05-04 00:42 | -23.65116 | -46.69500 | 21708 ft | 390 kts | 241° |
| 2026-05-04 00:43 | -23.66577 | -46.71984 | 22454 ft | 394 kts | 241° |
| 2026-05-04 00:43 | -23.68078 | -46.74515 | 23188 ft | 399 kts | 238° |
| 2026-05-04 00:43 | -23.69832 | -46.76884 | 23883 ft | 407 kts | 229° |
| 2026-05-04 00:43 | -23.72035 | -46.78801 | 24527 ft | 418 kts | 214° |
| 2026-05-04 00:44 | -23.74700 | -46.80096 | 25201 ft | 427 kts | 202° |
| 2026-05-04 00:44 | -23.77590 | -46.80938 | 25818 ft | 434 kts | 197° |
| 2026-05-04 00:44 | -23.80557 | -46.81643 | 26404 ft | 438 kts | 196° |
| 2026-05-04 00:44 | -23.83526 | -46.82358 | 26960 ft | 442 kts | 197° |
| 2026-05-04 00:45 | -23.86507 | -46.83083 | 27508 ft | 445 kts | 197° |
| 2026-05-04 00:45 | -23.89560 | -46.83821 | 28044 ft | 448 kts | 197° |
| 2026-05-04 00:45 | -23.92582 | -46.84549 | 28558 ft | 451 kts | 197° |
| 2026-05-04 00:45 | -23.95646 | -46.85284 | 29051 ft | 455 kts | 197° |
| 2026-05-04 00:46 | -23.98759 | -46.86030 | 29545 ft | 457 kts | 197° |
| 2026-05-04 00:46 | -24.01827 | -46.86765 | 30000 ft | 460 kts | 197° |
| 2026-05-04 00:46 | -24.04962 | -46.87515 | 30452 ft | 463 kts | 197° |
| 2026-05-04 00:46 | -24.08105 | -46.88264 | 30890 ft | 466 kts | 197° |
| 2026-05-04 00:47 | -24.11248 | -46.89014 | 31330 ft | 467 kts | 197° |